sensor_id;sensor_type;location;lat;lon;timestamp;P1;durP1;ratioP1;P2;durP2;ratioP2
6193;SDS011;3130;41.564;23.280;2023-03-05T00:01:55;16.80;;;9.87;;
6193;SDS011;3130;41.564;23.280;2023-03-05T00:04:22;17.07;;;11.60;;
6193;SDS011;3130;41.564;23.280;2023-03-05T00:06:49;14.47;;;10.67;;
6193;SDS011;3130;41.564;23.280;2023-03-05T00:09:16;18.43;;;10.53;;
6193;SDS011;3130;41.564;23.280;2023-03-05T00:11:43;15.03;;;10.60;;
6193;SDS011;3130;41.564;23.280;2023-03-05T00:14:10;13.20;;;9.97;;
6193;SDS011;3130;41.564;23.280;2023-03-05T00:16:38;13.67;;;11.10;;
6193;SDS011;3130;41.564;23.280;2023-03-05T00:19:07;17.20;;;10.90;;
6193;SDS011;3130;41.564;23.280;2023-03-05T00:21:35;14.23;;;10.40;;
6193;SDS011;3130;41.564;23.280;2023-03-05T00:24:04;14.00;;;10.80;;
6193;SDS011;3130;41.564;23.280;2023-03-05T00:26:34;14.07;;;9.87;;
6193;SDS011;3130;41.564;23.280;2023-03-05T00:29:03;14.73;;;9.83;;
6193;SDS011;3130;41.564;23.280;2023-03-05T00:31:33;11.87;;;9.13;;
6193;SDS011;3130;41.564;23.280;2023-03-05T00:34:03;14.23;;;9.50;;
6193;SDS011;3130;41.564;23.280;2023-03-05T00:36:33;13.80;;;10.17;;
6193;SDS011;3130;41.564;23.280;2023-03-05T00:39:01;16.77;;;10.00;;
6193;SDS011;3130;41.564;23.280;2023-03-05T00:41:28;14.70;;;9.40;;
6193;SDS011;3130;41.564;23.280;2023-03-05T00:43:55;13.77;;;9.77;;
6193;SDS011;3130;41.564;23.280;2023-03-05T00:46:22;17.47;;;10.67;;
6193;SDS011;3130;41.564;23.280;2023-03-05T00:48:51;16.70;;;10.53;;
6193;SDS011;3130;41.564;23.280;2023-03-05T00:51:18;18.50;;;10.40;;
6193;SDS011;3130;41.564;23.280;2023-03-05T00:53:47;13.17;;;9.00;;
6193;SDS011;3130;41.564;23.280;2023-03-05T00:56:14;13.83;;;9.83;;
6193;SDS011;3130;41.564;23.280;2023-03-05T00:58:41;17.77;;;10.43;;
6193;SDS011;3130;41.564;23.280;2023-03-05T01:01:08;12.10;;;8.70;;
6193;SDS011;3130;41.564;23.280;2023-03-05T01:03:36;15.53;;;9.67;;
6193;SDS011;3130;41.564;23.280;2023-03-05T01:06:04;14.10;;;9.37;;
6193;SDS011;3130;41.564;23.280;2023-03-05T01:08:33;16.53;;;10.17;;
6193;SDS011;3130;41.564;23.280;2023-03-05T01:11:02;16.00;;;8.30;;
6193;SDS011;3130;41.564;23.280;2023-03-05T01:13:29;13.93;;;8.77;;
6193;SDS011;3130;41.564;23.280;2023-03-05T01:15:56;13.27;;;8.60;;
6193;SDS011;3130;41.564;23.280;2023-03-05T01:18:24;11.17;;;6.93;;
6193;SDS011;3130;41.564;23.280;2023-03-05T01:20:51;15.27;;;9.30;;
6193;SDS011;3130;41.564;23.280;2023-03-05T01:23:18;13.40;;;8.87;;
6193;SDS011;3130;41.564;23.280;2023-03-05T01:25:51;12.93;;;8.07;;
6193;SDS011;3130;41.564;23.280;2023-03-05T01:28:20;12.90;;;8.50;;
6193;SDS011;3130;41.564;23.280;2023-03-05T01:30:47;11.67;;;7.37;;
6193;SDS011;3130;41.564;23.280;2023-03-05T01:33:14;15.70;;;9.90;;
6193;SDS011;3130;41.564;23.280;2023-03-05T01:35:44;12.57;;;8.70;;
6193;SDS011;3130;41.564;23.280;2023-03-05T01:38:12;11.93;;;8.13;;
6193;SDS011;3130;41.564;23.280;2023-03-05T01:40:40;12.77;;;8.23;;
6193;SDS011;3130;41.564;23.280;2023-03-05T01:43:14;12.73;;;7.30;;
6193;SDS011;3130;41.564;23.280;2023-03-05T01:51:47;11.50;;;7.60;;
6193;SDS011;3130;41.564;23.280;2023-03-05T01:54:24;13.53;;;7.67;;
6193;SDS011;3130;41.564;23.280;2023-03-05T01:56:55;10.50;;;7.10;;
6193;SDS011;3130;41.564;23.280;2023-03-05T01:59:29;11.67;;;7.50;;
6193;SDS011;3130;41.564;23.280;2023-03-05T02:01:57;10.13;;;6.50;;
6193;SDS011;3130;41.564;23.280;2023-03-05T02:04:26;7.47;;;6.33;;
6193;SDS011;3130;41.564;23.280;2023-03-05T02:07:00;8.33;;;6.20;;
6193;SDS011;3130;41.564;23.280;2023-03-05T02:09:28;10.43;;;6.07;;
6193;SDS011;3130;41.564;23.280;2023-03-05T02:11:55;7.40;;;5.30;;
6193;SDS011;3130;41.564;23.280;2023-03-05T02:14:23;6.80;;;6.07;;
6193;SDS011;3130;41.564;23.280;2023-03-05T02:16:52;5.60;;;4.90;;
6193;SDS011;3130;41.564;23.280;2023-03-05T02:19:19;7.77;;;5.70;;
6193;SDS011;3130;41.564;23.280;2023-03-05T02:21:48;8.03;;;4.87;;
6193;SDS011;3130;41.564;23.280;2023-03-05T02:24:16;9.93;;;5.43;;
6193;SDS011;3130;41.564;23.280;2023-03-05T02:26:45;7.07;;;5.20;;
6193;SDS011;3130;41.564;23.280;2023-03-05T02:29:13;6.77;;;5.20;;
6193;SDS011;3130;41.564;23.280;2023-03-05T02:31:44;8.23;;;5.50;;
6193;SDS011;3130;41.564;23.280;2023-03-05T02:34:11;8.03;;;5.17;;
6193;SDS011;3130;41.564;23.280;2023-03-05T02:36:38;7.70;;;5.17;;
6193;SDS011;3130;41.564;23.280;2023-03-05T02:39:07;8.43;;;5.23;;
6193;SDS011;3130;41.564;23.280;2023-03-05T02:41:34;8.17;;;5.10;;
6193;SDS011;3130;41.564;23.280;2023-03-05T02:44:02;8.17;;;4.57;;
6193;SDS011;3130;41.564;23.280;2023-03-05T02:46:29;7.33;;;5.17;;
6193;SDS011;3130;41.564;23.280;2023-03-05T02:48:56;6.20;;;3.80;;
6193;SDS011;3130;41.564;23.280;2023-03-05T02:51:23;7.33;;;4.97;;
6193;SDS011;3130;41.564;23.280;2023-03-05T02:53:50;6.13;;;4.63;;
6193;SDS011;3130;41.564;23.280;2023-03-05T02:56:19;6.53;;;4.27;;
6193;SDS011;3130;41.564;23.280;2023-03-05T02:58:46;8.63;;;4.73;;
6193;SDS011;3130;41.564;23.280;2023-03-05T03:01:13;5.17;;;3.83;;
6193;SDS011;3130;41.564;23.280;2023-03-05T03:03:40;8.50;;;4.97;;
6193;SDS011;3130;41.564;23.280;2023-03-05T03:06:07;6.27;;;4.70;;
6193;SDS011;3130;41.564;23.280;2023-03-05T03:08:34;5.93;;;4.60;;
6193;SDS011;3130;41.564;23.280;2023-03-05T03:11:05;6.40;;;4.40;;
6193;SDS011;3130;41.564;23.280;2023-03-05T03:13:35;14.23;;;6.47;;
6193;SDS011;3130;41.564;23.280;2023-03-05T03:16:02;17.23;;;10.10;;
6193;SDS011;3130;41.564;23.280;2023-03-05T03:18:30;11.03;;;8.50;;
6193;SDS011;3130;41.564;23.280;2023-03-05T03:20:58;14.47;;;9.47;;
6193;SDS011;3130;41.564;23.280;2023-03-05T03:23:25;21.13;;;15.73;;
6193;SDS011;3130;41.564;23.280;2023-03-05T03:25:52;23.53;;;17.23;;
6193;SDS011;3130;41.564;23.280;2023-03-05T03:28:20;29.67;;;20.93;;
6193;SDS011;3130;41.564;23.280;2023-03-05T03:30:48;39.83;;;28.80;;
6193;SDS011;3130;41.564;23.280;2023-03-05T03:33:16;39.70;;;30.63;;
6193;SDS011;3130;41.564;23.280;2023-03-05T03:35:43;44.37;;;30.70;;
6193;SDS011;3130;41.564;23.280;2023-03-05T03:38:11;49.50;;;34.07;;
6193;SDS011;3130;41.564;23.280;2023-03-05T03:40:38;49.90;;;38.20;;
6193;SDS011;3130;41.564;23.280;2023-03-05T03:43:06;54.23;;;37.77;;
6193;SDS011;3130;41.564;23.280;2023-03-05T03:45:33;51.17;;;35.87;;
6193;SDS011;3130;41.564;23.280;2023-03-05T03:48:02;52.57;;;38.57;;
6193;SDS011;3130;41.564;23.280;2023-03-05T03:50:29;55.20;;;39.77;;
6193;SDS011;3130;41.564;23.280;2023-03-05T03:52:56;58.03;;;38.40;;
6193;SDS011;3130;41.564;23.280;2023-03-05T03:55:23;56.43;;;40.57;;
6193;SDS011;3130;41.564;23.280;2023-03-05T03:57:50;52.50;;;35.87;;
6193;SDS011;3130;41.564;23.280;2023-03-05T04:00:18;60.67;;;40.53;;
6193;SDS011;3130;41.564;23.280;2023-03-05T04:02:45;58.67;;;42.03;;
6193;SDS011;3130;41.564;23.280;2023-03-05T04:05:14;63.70;;;40.83;;
6193;SDS011;3130;41.564;23.280;2023-03-05T04:07:41;57.13;;;38.87;;
6193;SDS011;3130;41.564;23.280;2023-03-05T04:10:10;53.53;;;34.73;;
6193;SDS011;3130;41.564;23.280;2023-03-05T04:12:37;49.53;;;35.27;;
6193;SDS011;3130;41.564;23.280;2023-03-05T04:15:07;41.23;;;29.63;;
6193;SDS011;3130;41.564;23.280;2023-03-05T04:17:35;39.10;;;25.60;;
6193;SDS011;3130;41.564;23.280;2023-03-05T04:20:02;41.03;;;25.87;;
6193;SDS011;3130;41.564;23.280;2023-03-05T04:22:34;33.33;;;22.47;;
6193;SDS011;3130;41.564;23.280;2023-03-05T04:25:01;38.20;;;25.57;;
6193;SDS011;3130;41.564;23.280;2023-03-05T04:27:30;39.17;;;22.53;;
6193;SDS011;3130;41.564;23.280;2023-03-05T04:29:58;26.40;;;18.70;;
6193;SDS011;3130;41.564;23.280;2023-03-05T04:32:25;26.77;;;18.57;;
6193;SDS011;3130;41.564;23.280;2023-03-05T04:34:54;25.50;;;17.40;;
6193;SDS011;3130;41.564;23.280;2023-03-05T04:37:21;23.47;;;16.13;;
6193;SDS011;3130;41.564;23.280;2023-03-05T04:39:50;25.33;;;16.37;;
6193;SDS011;3130;41.564;23.280;2023-03-05T04:42:17;23.07;;;15.77;;
6193;SDS011;3130;41.564;23.280;2023-03-05T04:44:45;26.63;;;17.57;;
6193;SDS011;3130;41.564;23.280;2023-03-05T04:47:12;27.00;;;16.40;;
6193;SDS011;3130;41.564;23.280;2023-03-05T04:49:40;27.10;;;16.37;;
6193;SDS011;3130;41.564;23.280;2023-03-05T04:52:07;26.73;;;17.97;;
6193;SDS011;3130;41.564;23.280;2023-03-05T04:54:36;24.37;;;16.67;;
6193;SDS011;3130;41.564;23.280;2023-03-05T04:57:05;30.57;;;18.50;;
6193;SDS011;3130;41.564;23.280;2023-03-05T04:59:33;30.73;;;19.67;;
6193;SDS011;3130;41.564;23.280;2023-03-05T05:02:00;25.47;;;16.33;;
6193;SDS011;3130;41.564;23.280;2023-03-05T05:04:27;24.57;;;17.33;;
6193;SDS011;3130;41.564;23.280;2023-03-05T05:06:55;31.37;;;17.37;;
6193;SDS011;3130;41.564;23.280;2023-03-05T05:09:23;21.70;;;15.70;;
6193;SDS011;3130;41.564;23.280;2023-03-05T05:11:50;30.33;;;18.60;;
6193;SDS011;3130;41.564;23.280;2023-03-05T05:14:20;25.17;;;16.30;;
6193;SDS011;3130;41.564;23.280;2023-03-05T05:16:47;25.30;;;16.87;;
6193;SDS011;3130;41.564;23.280;2023-03-05T05:19:14;26.30;;;17.27;;
6193;SDS011;3130;41.564;23.280;2023-03-05T05:21:41;23.23;;;15.40;;
6193;SDS011;3130;41.564;23.280;2023-03-05T05:24:09;25.27;;;14.73;;
6193;SDS011;3130;41.564;23.280;2023-03-05T05:26:36;25.93;;;17.93;;
6193;SDS011;3130;41.564;23.280;2023-03-05T05:29:03;63.17;;;41.50;;
6193;SDS011;3130;41.564;23.280;2023-03-05T05:31:32;72.73;;;48.97;;
6193;SDS011;3130;41.564;23.280;2023-03-05T05:33:59;89.53;;;54.80;;
6193;SDS011;3130;41.564;23.280;2023-03-05T05:36:26;89.07;;;62.20;;
6193;SDS011;3130;41.564;23.280;2023-03-05T05:38:53;181.03;;;107.93;;
6193;SDS011;3130;41.564;23.280;2023-03-05T05:41:20;188.60;;;112.13;;
6193;SDS011;3130;41.564;23.280;2023-03-05T05:43:47;215.07;;;132.77;;
6193;SDS011;3130;41.564;23.280;2023-03-05T05:46:15;152.27;;;98.77;;
6193;SDS011;3130;41.564;23.280;2023-03-05T05:48:46;106.77;;;73.70;;
6193;SDS011;3130;41.564;23.280;2023-03-05T05:51:15;103.53;;;66.73;;
6193;SDS011;3130;41.564;23.280;2023-03-05T05:53:44;92.30;;;61.73;;
6193;SDS011;3130;41.564;23.280;2023-03-05T05:56:12;92.70;;;61.00;;
6193;SDS011;3130;41.564;23.280;2023-03-05T05:58:40;76.90;;;50.97;;
6193;SDS011;3130;41.564;23.280;2023-03-05T06:01:12;83.90;;;55.47;;
6193;SDS011;3130;41.564;23.280;2023-03-05T06:03:41;75.13;;;49.23;;
6193;SDS011;3130;41.564;23.280;2023-03-05T06:06:10;70.00;;;50.00;;
6193;SDS011;3130;41.564;23.280;2023-03-05T06:08:38;70.87;;;46.27;;
6193;SDS011;3130;41.564;23.280;2023-03-05T06:11:05;71.17;;;46.17;;
6193;SDS011;3130;41.564;23.280;2023-03-05T06:13:33;70.50;;;45.80;;
6193;SDS011;3130;41.564;23.280;2023-03-05T06:16:00;64.47;;;42.77;;
6193;SDS011;3130;41.564;23.280;2023-03-05T06:18:29;64.90;;;43.87;;
6193;SDS011;3130;41.564;23.280;2023-03-05T06:20:57;65.27;;;43.30;;
6193;SDS011;3130;41.564;23.280;2023-03-05T06:23:27;73.13;;;46.97;;
6193;SDS011;3130;41.564;23.280;2023-03-05T06:25:54;68.03;;;47.47;;
6193;SDS011;3130;41.564;23.280;2023-03-05T06:28:25;70.57;;;48.43;;
6193;SDS011;3130;41.564;23.280;2023-03-05T06:30:58;64.37;;;44.50;;
6193;SDS011;3130;41.564;23.280;2023-03-05T06:33:26;66.03;;;45.33;;
6193;SDS011;3130;41.564;23.280;2023-03-05T06:35:53;52.87;;;38.40;;
6193;SDS011;3130;41.564;23.280;2023-03-05T06:38:20;65.60;;;44.70;;
6193;SDS011;3130;41.564;23.280;2023-03-05T06:40:49;66.10;;;44.00;;
6193;SDS011;3130;41.564;23.280;2023-03-05T06:43:17;67.97;;;43.23;;
6193;SDS011;3130;41.564;23.280;2023-03-05T06:45:44;56.40;;;39.67;;
6193;SDS011;3130;41.564;23.280;2023-03-05T06:48:11;55.20;;;38.80;;
6193;SDS011;3130;41.564;23.280;2023-03-05T06:50:38;44.83;;;32.27;;
6193;SDS011;3130;41.564;23.280;2023-03-05T06:53:06;19.67;;;14.50;;
6193;SDS011;3130;41.564;23.280;2023-03-05T06:55:34;30.17;;;22.40;;
6193;SDS011;3130;41.564;23.280;2023-03-05T06:58:06;17.67;;;13.93;;
6193;SDS011;3130;41.564;23.280;2023-03-05T07:00:33;14.10;;;12.23;;
6193;SDS011;3130;41.564;23.280;2023-03-05T07:03:00;13.33;;;11.10;;
6193;SDS011;3130;41.564;23.280;2023-03-05T07:05:27;19.00;;;14.13;;
6193;SDS011;3130;41.564;23.280;2023-03-05T07:07:55;17.10;;;12.43;;
6193;SDS011;3130;41.564;23.280;2023-03-05T07:10:22;19.13;;;12.60;;
6193;SDS011;3130;41.564;23.280;2023-03-05T07:12:49;19.57;;;13.53;;
6193;SDS011;3130;41.564;23.280;2023-03-05T07:15:18;18.40;;;13.60;;
6193;SDS011;3130;41.564;23.280;2023-03-05T07:17:45;15.13;;;11.73;;
6193;SDS011;3130;41.564;23.280;2023-03-05T07:20:12;13.50;;;10.17;;
6193;SDS011;3130;41.564;23.280;2023-03-05T07:22:40;15.70;;;10.70;;
6193;SDS011;3130;41.564;23.280;2023-03-05T07:25:07;13.60;;;9.13;;
6193;SDS011;3130;41.564;23.280;2023-03-05T07:27:35;13.27;;;9.13;;
6193;SDS011;3130;41.564;23.280;2023-03-05T07:30:03;10.50;;;8.53;;
6193;SDS011;3130;41.564;23.280;2023-03-05T07:32:33;10.87;;;8.47;;
6193;SDS011;3130;41.564;23.280;2023-03-05T07:35:01;13.83;;;9.40;;
6193;SDS011;3130;41.564;23.280;2023-03-05T07:37:28;10.87;;;9.40;;
6193;SDS011;3130;41.564;23.280;2023-03-05T07:39:56;11.47;;;8.90;;
6193;SDS011;3130;41.564;23.280;2023-03-05T07:42:23;12.63;;;8.73;;
6193;SDS011;3130;41.564;23.280;2023-03-05T07:44:51;9.27;;;7.27;;
6193;SDS011;3130;41.564;23.280;2023-03-05T07:47:18;10.00;;;8.27;;
6193;SDS011;3130;41.564;23.280;2023-03-05T07:49:47;12.47;;;8.57;;
6193;SDS011;3130;41.564;23.280;2023-03-05T07:52:14;11.40;;;7.97;;
6193;SDS011;3130;41.564;23.280;2023-03-05T07:54:41;10.10;;;8.33;;
6193;SDS011;3130;41.564;23.280;2023-03-05T07:57:09;11.43;;;8.83;;
6193;SDS011;3130;41.564;23.280;2023-03-05T07:59:37;17.00;;;13.33;;
6193;SDS011;3130;41.564;23.280;2023-03-05T08:02:05;14.50;;;9.83;;
6193;SDS011;3130;41.564;23.280;2023-03-05T08:04:32;11.37;;;8.80;;
6193;SDS011;3130;41.564;23.280;2023-03-05T08:07:01;10.97;;;8.90;;
6193;SDS011;3130;41.564;23.280;2023-03-05T08:09:28;11.73;;;8.83;;
6193;SDS011;3130;41.564;23.280;2023-03-05T08:11:55;9.27;;;7.10;;
6193;SDS011;3130;41.564;23.280;2023-03-05T08:14:22;10.40;;;7.93;;
6193;SDS011;3130;41.564;23.280;2023-03-05T08:16:49;9.00;;;7.83;;
6193;SDS011;3130;41.564;23.280;2023-03-05T08:19:17;8.87;;;7.80;;
6193;SDS011;3130;41.564;23.280;2023-03-05T08:21:45;8.93;;;6.97;;
6193;SDS011;3130;41.564;23.280;2023-03-05T08:24:14;8.33;;;7.17;;
6193;SDS011;3130;41.564;23.280;2023-03-05T08:26:41;11.83;;;7.70;;
6193;SDS011;3130;41.564;23.280;2023-03-05T08:29:09;8.90;;;7.20;;
6193;SDS011;3130;41.564;23.280;2023-03-05T08:31:37;16.00;;;9.07;;
6193;SDS011;3130;41.564;23.280;2023-03-05T08:34:04;12.47;;;9.23;;
6193;SDS011;3130;41.564;23.280;2023-03-05T08:36:32;11.87;;;9.47;;
6193;SDS011;3130;41.564;23.280;2023-03-05T08:38:59;11.63;;;9.23;;
6193;SDS011;3130;41.564;23.280;2023-03-05T08:41:29;14.27;;;10.87;;
6193;SDS011;3130;41.564;23.280;2023-03-05T08:43:56;11.97;;;8.53;;
6193;SDS011;3130;41.564;23.280;2023-03-05T08:46:23;14.87;;;9.90;;
6193;SDS011;3130;41.564;23.280;2023-03-05T08:48:51;17.20;;;10.30;;
6193;SDS011;3130;41.564;23.280;2023-03-05T08:51:19;16.30;;;11.37;;
6193;SDS011;3130;41.564;23.280;2023-03-05T08:53:49;20.83;;;11.50;;
6193;SDS011;3130;41.564;23.280;2023-03-05T08:56:16;13.70;;;11.20;;
6193;SDS011;3130;41.564;23.280;2023-03-05T08:58:45;12.47;;;9.83;;
6193;SDS011;3130;41.564;23.280;2023-03-05T09:01:13;12.57;;;8.63;;
6193;SDS011;3130;41.564;23.280;2023-03-05T09:03:40;12.67;;;8.70;;
6193;SDS011;3130;41.564;23.280;2023-03-05T09:06:08;12.73;;;8.47;;
6193;SDS011;3130;41.564;23.280;2023-03-05T09:08:37;13.53;;;9.57;;
6193;SDS011;3130;41.564;23.280;2023-03-05T09:11:05;11.17;;;8.13;;
6193;SDS011;3130;41.564;23.280;2023-03-05T09:13:34;22.57;;;15.03;;
6193;SDS011;3130;41.564;23.280;2023-03-05T09:16:03;11.73;;;9.87;;
6193;SDS011;3130;41.564;23.280;2023-03-05T09:18:36;10.47;;;7.97;;
6193;SDS011;3130;41.564;23.280;2023-03-05T09:21:04;11.77;;;7.87;;
6193;SDS011;3130;41.564;23.280;2023-03-05T09:23:33;13.70;;;7.80;;
6193;SDS011;3130;41.564;23.280;2023-03-05T09:26:00;15.60;;;10.43;;
6193;SDS011;3130;41.564;23.280;2023-03-05T09:28:30;13.13;;;8.97;;
6193;SDS011;3130;41.564;23.280;2023-03-05T09:31:00;16.20;;;11.33;;
6193;SDS011;3130;41.564;23.280;2023-03-05T09:33:30;12.97;;;10.73;;
6193;SDS011;3130;41.564;23.280;2023-03-05T09:35:57;12.70;;;10.50;;
6193;SDS011;3130;41.564;23.280;2023-03-05T09:38:24;15.20;;;11.83;;
6193;SDS011;3130;41.564;23.280;2023-03-05T09:40:54;14.53;;;10.93;;
6193;SDS011;3130;41.564;23.280;2023-03-05T09:43:32;14.13;;;9.67;;
6193;SDS011;3130;41.564;23.280;2023-03-05T09:46:13;14.33;;;10.83;;
6193;SDS011;3130;41.564;23.280;2023-03-05T09:48:49;17.90;;;12.50;;
6193;SDS011;3130;41.564;23.280;2023-03-05T09:51:20;22.03;;;15.43;;
6193;SDS011;3130;41.564;23.280;2023-03-05T09:53:51;20.37;;;11.57;;
6193;SDS011;3130;41.564;23.280;2023-03-05T09:56:25;16.87;;;12.00;;
6193;SDS011;3130;41.564;23.280;2023-03-05T09:58:55;16.63;;;12.10;;
6193;SDS011;3130;41.564;23.280;2023-03-05T10:01:27;15.90;;;11.67;;
6193;SDS011;3130;41.564;23.280;2023-03-05T10:03:59;18.47;;;12.23;;
6193;SDS011;3130;41.564;23.280;2023-03-05T10:06:29;20.17;;;12.50;;
6193;SDS011;3130;41.564;23.280;2023-03-05T10:09:02;19.13;;;11.40;;
6193;SDS011;3130;41.564;23.280;2023-03-05T10:11:35;20.63;;;15.37;;
6193;SDS011;3130;41.564;23.280;2023-03-05T10:14:09;22.53;;;14.23;;
6193;SDS011;3130;41.564;23.280;2023-03-05T10:16:44;17.97;;;12.03;;
6193;SDS011;3130;41.564;23.280;2023-03-05T10:19:30;21.23;;;13.23;;
6193;SDS011;3130;41.564;23.280;2023-03-05T10:22:13;19.30;;;12.83;;
6193;SDS011;3130;41.564;23.280;2023-03-05T10:24:49;20.00;;;12.57;;
6193;SDS011;3130;41.564;23.280;2023-03-05T10:27:31;21.00;;;11.93;;
6193;SDS011;3130;41.564;23.280;2023-03-05T10:30:07;19.60;;;13.63;;
6193;SDS011;3130;41.564;23.280;2023-03-05T10:32:49;24.57;;;14.93;;
6193;SDS011;3130;41.564;23.280;2023-03-05T10:35:30;19.23;;;11.33;;
6193;SDS011;3130;41.564;23.280;2023-03-05T10:41:07;20.23;;;12.97;;
6193;SDS011;3130;41.564;23.280;2023-03-05T10:43:43;19.60;;;13.40;;
6193;SDS011;3130;41.564;23.280;2023-03-05T10:46:15;21.97;;;13.43;;
6193;SDS011;3130;41.564;23.280;2023-03-05T10:48:45;19.60;;;13.90;;
6193;SDS011;3130;41.564;23.280;2023-03-05T10:51:19;18.90;;;13.17;;
6193;SDS011;3130;41.564;23.280;2023-03-05T10:53:51;24.17;;;13.67;;
6193;SDS011;3130;41.564;23.280;2023-03-05T10:56:22;20.10;;;13.30;;
6193;SDS011;3130;41.564;23.280;2023-03-05T10:58:51;20.63;;;13.53;;
6193;SDS011;3130;41.564;23.280;2023-03-05T11:01:20;19.97;;;12.90;;
6193;SDS011;3130;41.564;23.280;2023-03-05T11:03:51;21.00;;;13.97;;
6193;SDS011;3130;41.564;23.280;2023-03-05T11:06:28;26.37;;;14.80;;
6193;SDS011;3130;41.564;23.280;2023-03-05T11:11:44;20.00;;;12.30;;
6193;SDS011;3130;41.564;23.280;2023-03-05T11:14:32;18.87;;;12.43;;
6193;SDS011;3130;41.564;23.280;2023-03-05T11:17:01;17.23;;;12.03;;
6193;SDS011;3130;41.564;23.280;2023-03-05T11:19:31;18.97;;;12.33;;
6193;SDS011;3130;41.564;23.280;2023-03-05T11:22:06;19.00;;;12.83;;
6193;SDS011;3130;41.564;23.280;2023-03-05T11:24:40;17.87;;;11.97;;
6193;SDS011;3130;41.564;23.280;2023-03-05T11:27:21;19.53;;;11.90;;
6193;SDS011;3130;41.564;23.280;2023-03-05T11:29:50;20.13;;;13.03;;
6193;SDS011;3130;41.564;23.280;2023-03-05T11:32:19;18.13;;;12.73;;
6193;SDS011;3130;41.564;23.280;2023-03-05T11:34:50;17.60;;;12.17;;
6193;SDS011;3130;41.564;23.280;2023-03-05T11:37:22;22.10;;;11.80;;
6193;SDS011;3130;41.564;23.280;2023-03-05T11:40:04;24.30;;;12.67;;
6193;SDS011;3130;41.564;23.280;2023-03-05T11:42:45;21.47;;;12.23;;
6193;SDS011;3130;41.564;23.280;2023-03-05T11:45:20;17.27;;;12.67;;
6193;SDS011;3130;41.564;23.280;2023-03-05T11:47:49;16.50;;;12.03;;
6193;SDS011;3130;41.564;23.280;2023-03-05T11:50:21;18.10;;;12.53;;
6193;SDS011;3130;41.564;23.280;2023-03-05T11:52:51;16.97;;;12.40;;
6193;SDS011;3130;41.564;23.280;2023-03-05T11:55:20;18.53;;;11.63;;
6193;SDS011;3130;41.564;23.280;2023-03-05T11:57:55;19.97;;;12.57;;
6193;SDS011;3130;41.564;23.280;2023-03-05T12:00:31;18.33;;;12.53;;
6193;SDS011;3130;41.564;23.280;2023-03-05T12:03:03;27.43;;;17.77;;
6193;SDS011;3130;41.564;23.280;2023-03-05T12:05:38;17.43;;;11.53;;
6193;SDS011;3130;41.564;23.280;2023-03-05T12:08:08;16.90;;;12.60;;
6193;SDS011;3130;41.564;23.280;2023-03-05T12:10:39;18.63;;;9.77;;
6193;SDS011;3130;41.564;23.280;2023-03-05T12:13:11;17.67;;;10.67;;
6193;SDS011;3130;41.564;23.280;2023-03-05T12:15:46;20.53;;;13.83;;
6193;SDS011;3130;41.564;23.280;2023-03-05T12:18:28;15.93;;;10.53;;
6193;SDS011;3130;41.564;23.280;2023-03-05T12:21:06;18.77;;;12.53;;
6193;SDS011;3130;41.564;23.280;2023-03-05T12:23:46;16.63;;;12.57;;
6193;SDS011;3130;41.564;23.280;2023-03-05T12:26:15;23.73;;;14.00;;
6193;SDS011;3130;41.564;23.280;2023-03-05T12:28:52;15.47;;;11.40;;
6193;SDS011;3130;41.564;23.280;2023-03-05T12:31:36;19.53;;;13.87;;
6193;SDS011;3130;41.564;23.280;2023-03-05T12:40:33;16.90;;;11.83;;
6193;SDS011;3130;41.564;23.280;2023-03-05T12:43:00;22.20;;;12.93;;
6193;SDS011;3130;41.564;23.280;2023-03-05T12:45:37;18.27;;;12.73;;
6193;SDS011;3130;41.564;23.280;2023-03-05T12:51:14;16.37;;;11.33;;
6193;SDS011;3130;41.564;23.280;2023-03-05T12:53:54;20.17;;;11.60;;
6193;SDS011;3130;41.564;23.280;2023-03-05T12:56:25;17.97;;;12.97;;
6193;SDS011;3130;41.564;23.280;2023-03-05T12:58:57;24.47;;;14.57;;
6193;SDS011;3130;41.564;23.280;2023-03-05T13:01:35;17.57;;;13.67;;
6193;SDS011;3130;41.564;23.280;2023-03-05T13:04:11;17.27;;;12.13;;
6193;SDS011;3130;41.564;23.280;2023-03-05T13:06:44;19.03;;;14.20;;
6193;SDS011;3130;41.564;23.280;2023-03-05T13:09:16;17.93;;;11.63;;
6193;SDS011;3130;41.564;23.280;2023-03-05T13:11:47;19.07;;;12.03;;
6193;SDS011;3130;41.564;23.280;2023-03-05T13:17:01;15.03;;;10.50;;
6193;SDS011;3130;41.564;23.280;2023-03-05T13:19:49;16.37;;;11.00;;
6193;SDS011;3130;41.564;23.280;2023-03-05T13:22:16;20.33;;;10.60;;
6193;SDS011;3130;41.564;23.280;2023-03-05T13:24:43;20.90;;;12.53;;
6193;SDS011;3130;41.564;23.280;2023-03-05T13:27:24;18.63;;;12.33;;
6193;SDS011;3130;41.564;23.280;2023-03-05T13:29:55;19.30;;;12.97;;
6193;SDS011;3130;41.564;23.280;2023-03-05T13:32:24;18.37;;;13.23;;
6193;SDS011;3130;41.564;23.280;2023-03-05T13:34:53;22.07;;;12.57;;
6193;SDS011;3130;41.564;23.280;2023-03-05T13:37:23;18.73;;;11.63;;
6193;SDS011;3130;41.564;23.280;2023-03-05T13:39:53;20.73;;;13.40;;
6193;SDS011;3130;41.564;23.280;2023-03-05T13:42:22;16.73;;;11.67;;
6193;SDS011;3130;41.564;23.280;2023-03-05T13:44:53;17.17;;;11.30;;
6193;SDS011;3130;41.564;23.280;2023-03-05T13:47:21;18.97;;;12.63;;
6193;SDS011;3130;41.564;23.280;2023-03-05T13:49:54;19.97;;;12.33;;
6193;SDS011;3130;41.564;23.280;2023-03-05T13:52:24;17.20;;;11.83;;
6193;SDS011;3130;41.564;23.280;2023-03-05T13:54:54;17.97;;;12.67;;
6193;SDS011;3130;41.564;23.280;2023-03-05T13:57:36;15.07;;;12.60;;
6193;SDS011;3130;41.564;23.280;2023-03-05T14:00:04;17.70;;;10.87;;
6193;SDS011;3130;41.564;23.280;2023-03-05T14:02:33;18.13;;;11.93;;
6193;SDS011;3130;41.564;23.280;2023-03-05T14:05:00;21.93;;;12.33;;
6193;SDS011;3130;41.564;23.280;2023-03-05T14:07:30;18.13;;;12.13;;
6193;SDS011;3130;41.564;23.280;2023-03-05T14:09:58;18.13;;;11.83;;
6193;SDS011;3130;41.564;23.280;2023-03-05T14:12:28;19.23;;;12.77;;
6193;SDS011;3130;41.564;23.280;2023-03-05T14:15:03;18.43;;;12.93;;
6193;SDS011;3130;41.564;23.280;2023-03-05T14:17:37;20.07;;;11.37;;
6193;SDS011;3130;41.564;23.280;2023-03-05T14:22:50;16.93;;;12.33;;
6193;SDS011;3130;41.564;23.280;2023-03-05T14:25:29;17.87;;;12.03;;
6193;SDS011;3130;41.564;23.280;2023-03-05T14:28:00;17.27;;;13.07;;
6193;SDS011;3130;41.564;23.280;2023-03-05T14:30:31;16.83;;;12.57;;
6193;SDS011;3130;41.564;23.280;2023-03-05T14:33:00;13.97;;;10.20;;
6193;SDS011;3130;41.564;23.280;2023-03-05T14:35:28;15.73;;;11.77;;
6193;SDS011;3130;41.564;23.280;2023-03-05T14:37:56;14.60;;;10.90;;
6193;SDS011;3130;41.564;23.280;2023-03-05T14:40:28;14.47;;;10.80;;
6193;SDS011;3130;41.564;23.280;2023-03-05T14:43:02;16.07;;;11.47;;
6193;SDS011;3130;41.564;23.280;2023-03-05T14:45:32;16.97;;;11.10;;
6193;SDS011;3130;41.564;23.280;2023-03-05T14:48:01;16.40;;;11.43;;
6193;SDS011;3130;41.564;23.280;2023-03-05T14:50:31;17.77;;;12.97;;
6193;SDS011;3130;41.564;23.280;2023-03-05T14:53:01;17.27;;;12.80;;
6193;SDS011;3130;41.564;23.280;2023-03-05T14:55:30;16.43;;;12.70;;
6193;SDS011;3130;41.564;23.280;2023-03-05T14:57:59;21.20;;;14.33;;
6193;SDS011;3130;41.564;23.280;2023-03-05T15:00:29;17.93;;;11.00;;
6193;SDS011;3130;41.564;23.280;2023-03-05T15:02:58;17.83;;;11.27;;
6193;SDS011;3130;41.564;23.280;2023-03-05T15:05:25;18.33;;;12.00;;
6193;SDS011;3130;41.564;23.280;2023-03-05T15:07:52;21.60;;;12.77;;
6193;SDS011;3130;41.564;23.280;2023-03-05T15:10:20;19.53;;;12.47;;
6193;SDS011;3130;41.564;23.280;2023-03-05T15:12:49;19.07;;;12.73;;
6193;SDS011;3130;41.564;23.280;2023-03-05T15:15:18;15.47;;;11.33;;
6193;SDS011;3130;41.564;23.280;2023-03-05T15:17:46;16.77;;;12.47;;
6193;SDS011;3130;41.564;23.280;2023-03-05T15:20:18;17.97;;;13.00;;